sensor_id;sensor_type;location;lat;lon;timestamp;pressure;altitude;pressure_sealevel;temperature;humidity
30897;BME280;64229;52.246;21.054;2023-05-07T04:24:25;101320.06;;;5.58;100.00
30897;BME280;64229;52.246;21.054;2023-05-07T04:26:50;101329.63;;;5.59;100.00
30897;BME280;64229;52.246;21.054;2023-05-07T04:29:16;101304.81;;;5.47;100.00
30897;BME280;64229;52.246;21.054;2023-05-07T04:31:42;101331.09;;;5.55;100.00
30897;BME280;64229;52.246;21.054;2023-05-07T04:34:10;101346.34;;;5.66;100.00
30897;BME280;64229;52.246;21.054;2023-05-07T04:36:37;101334.34;;;5.64;100.00
30897;BME280;64229;52.246;21.054;2023-05-07T04:39:02;101340.44;;;5.64;100.00
30897;BME280;64229;52.246;21.054;2023-05-07T04:41:28;101346.56;;;5.65;100.00
30897;BME280;64229;52.246;21.054;2023-05-07T04:43:53;101312.13;;;5.51;100.00
30897;BME280;64229;52.246;21.054;2023-05-07T04:46:18;101349.59;;;5.68;100.00
30897;BME280;64229;52.246;21.054;2023-05-07T04:48:44;101350.81;;;5.72;100.00
30897;BME280;64229;52.246;21.054;2023-05-07T04:51:09;101347.94;;;5.74;100.00
30897;BME280;64229;52.246;21.054;2023-05-07T04:53:34;101343.88;;;5.78;100.00
30897;BME280;64229;52.246;21.054;2023-05-07T04:56:00;101345.88;;;5.82;100.00
30897;BME280;64229;52.246;21.054;2023-05-07T04:58:25;101360.75;;;5.84;100.00
30897;BME280;64229;52.246;21.054;2023-05-07T05:00:50;101353.44;;;5.86;100.00
30897;BME280;64229;52.246;21.054;2023-05-07T05:03:16;101342.84;;;5.79;100.00
30897;BME280;64229;52.246;21.054;2023-05-07T05:05:42;101361.19;;;5.87;100.00
30897;BME280;64229;52.246;21.054;2023-05-07T05:08:07;101366.25;;;5.95;100.00
30897;BME280;64229;52.246;21.054;2023-05-07T05:10:33;101367.28;;;6.01;100.00
30897;BME280;64229;52.246;21.054;2023-05-07T05:12:58;101367.66;;;6.11;100.00
30897;BME280;64229;52.246;21.054;2023-05-07T05:15:23;101374.16;;;6.22;100.00
30897;BME280;64229;52.246;21.054;2023-05-07T05:17:49;101372.91;;;6.31;100.00
30897;BME280;64229;52.246;21.054;2023-05-07T05:20:14;101374.09;;;6.42;100.00
30897;BME280;64229;52.246;21.054;2023-05-07T05:22:41;101383.84;;;6.48;100.00
30897;BME280;64229;52.246;21.054;2023-05-07T05:25:07;101375.44;;;6.57;100.00
30897;BME280;64229;52.246;21.054;2023-05-07T05:27:32;101372.09;;;6.68;100.00
30897;BME280;64229;52.246;21.054;2023-05-07T05:29:57;101377.13;;;6.83;100.00
30897;BME280;64229;52.246;21.054;2023-05-07T05:32:23;101382.78;;;6.93;99.73
30897;BME280;64229;52.246;21.054;2023-05-07T05:34:48;101386.00;;;7.02;98.81
30897;BME280;64229;52.246;21.054;2023-05-07T05:37:14;101385.78;;;7.04;98.60
30897;BME280;64229;52.246;21.054;2023-05-07T05:39:39;101391.09;;;7.04;98.46
30897;BME280;64229;52.246;21.054;2023-05-07T05:42:04;101378.88;;;7.03;98.64
30897;BME280;64229;52.246;21.054;2023-05-07T05:44:30;101385.16;;;7.02;98.63
30897;BME280;64229;52.246;21.054;2023-05-07T05:46:55;101394.13;;;7.07;98.25
30897;BME280;64229;52.246;21.054;2023-05-07T05:49:22;101394.50;;;7.11;97.59
30897;BME280;64229;52.246;21.054;2023-05-07T05:51:48;101379.38;;;7.11;97.35
30897;BME280;64229;52.246;21.054;2023-05-07T05:54:13;101391.56;;;7.25;97.16
30897;BME280;64229;52.246;21.054;2023-05-07T05:56:38;101391.31;;;7.34;96.00
30897;BME280;64229;52.246;21.054;2023-05-07T05:59:04;101401.50;;;7.37;94.56
30897;BME280;64229;52.246;21.054;2023-05-07T06:01:29;101403.94;;;7.38;95.05
30897;BME280;64229;52.246;21.054;2023-05-07T06:03:55;101406.72;;;7.43;93.82
30897;BME280;64229;52.246;21.054;2023-05-07T06:06:21;101413.97;;;7.36;93.92
30897;BME280;64229;52.246;21.054;2023-05-07T06:08:46;101412.56;;;7.34;94.38
30897;BME280;64229;52.246;21.054;2023-05-07T06:11:11;101400.38;;;7.19;94.52
30897;BME280;64229;52.246;21.054;2023-05-07T06:13:37;101405.47;;;7.21;95.04
30897;BME280;64229;52.246;21.054;2023-05-07T06:16:02;101412.00;;;7.25;95.22
30897;BME280;64229;52.246;21.054;2023-05-07T06:18:28;101416.22;;;7.33;95.12
30897;BME280;64229;52.246;21.054;2023-05-07T06:20:53;101417.78;;;7.40;94.34
30897;BME280;64229;52.246;21.054;2023-05-07T06:23:18;101402.53;;;7.36;93.85
30897;BME280;64229;52.246;21.054;2023-05-07T06:25:50;101420.06;;;7.62;92.39
30897;BME280;64229;52.246;21.054;2023-05-07T06:28:16;101424.13;;;7.64;92.52
30897;BME280;64229;52.246;21.054;2023-05-07T06:30:41;101421.34;;;7.59;92.84
30897;BME280;64229;52.246;21.054;2023-05-07T06:33:06;101440.47;;;7.68;92.97
30897;BME280;64229;52.246;21.054;2023-05-07T06:35:32;101424.94;;;7.65;92.14
30897;BME280;64229;52.246;21.054;2023-05-07T06:37:57;101430.66;;;7.68;91.73
30897;BME280;64229;52.246;21.054;2023-05-07T06:40:23;101432.78;;;7.60;92.07
30897;BME280;64229;52.246;21.054;2023-05-07T06:42:48;101434.50;;;7.72;91.66
30897;BME280;64229;52.246;21.054;2023-05-07T06:45:13;101438.78;;;7.73;91.67
30897;BME280;64229;52.246;21.054;2023-05-07T06:47:39;101439.78;;;7.79;91.16
30897;BME280;64229;52.246;21.054;2023-05-07T06:50:04;101436.53;;;7.77;91.10
30897;BME280;64229;52.246;21.054;2023-05-07T06:52:30;101435.25;;;7.79;91.51
30897;BME280;64229;52.246;21.054;2023-05-07T06:54:55;101436.53;;;7.95;90.55
30897;BME280;64229;52.246;21.054;2023-05-07T06:57:21;101438.47;;;8.06;89.13
30897;BME280;64229;52.246;21.054;2023-05-07T06:59:46;101445.00;;;8.10;88.83
30897;BME280;64229;52.246;21.054;2023-05-07T07:02:11;101439.09;;;8.08;89.15
30897;BME280;64229;52.246;21.054;2023-05-07T07:04:36;101445.81;;;8.11;89.01
30897;BME280;64229;52.246;21.054;2023-05-07T07:07:02;101451.75;;;8.06;88.63
30897;BME280;64229;52.246;21.054;2023-05-07T07:09:27;101445.63;;;8.06;88.80
30897;BME280;64229;52.246;21.054;2023-05-07T07:11:53;101449.50;;;8.10;88.67
30897;BME280;64229;52.246;21.054;2023-05-07T07:14:18;101452.75;;;8.12;88.31
30897;BME280;64229;52.246;21.054;2023-05-07T07:16:43;101453.56;;;8.12;88.36
30897;BME280;64229;52.246;21.054;2023-05-07T07:19:08;101462.44;;;8.25;88.22
30897;BME280;64229;52.246;21.054;2023-05-07T07:21:34;101457.63;;;8.40;88.04
30897;BME280;64229;52.246;21.054;2023-05-07T07:23:59;101461.97;;;8.53;87.17
30897;BME280;64229;52.246;21.054;2023-05-07T07:26:25;101441.25;;;8.55;87.40
30897;BME280;64229;52.246;21.054;2023-05-07T07:28:50;101466.03;;;8.74;85.77
30897;BME280;64229;52.246;21.054;2023-05-07T07:31:16;101470.00;;;8.83;85.05
30897;BME280;64229;52.246;21.054;2023-05-07T07:33:41;101481.00;;;8.86;85.05
30897;BME280;64229;52.246;21.054;2023-05-07T07:36:07;101465.38;;;8.90;84.87
30897;BME280;64229;52.246;21.054;2023-05-07T07:38:32;101474.84;;;9.04;84.54
30897;BME280;64229;52.246;21.054;2023-05-07T07:40:58;101463.44;;;9.15;84.21
30897;BME280;64229;52.246;21.054;2023-05-07T07:43:23;101474.47;;;9.31;82.82
30897;BME280;64229;52.246;21.054;2023-05-07T07:45:48;101479.81;;;9.42;82.03
30897;BME280;64229;52.246;21.054;2023-05-07T07:48:14;101473.22;;;9.45;81.52
30897;BME280;64229;52.246;21.054;2023-05-07T07:50:39;101480.44;;;9.56;80.71
30897;BME280;64229;52.246;21.054;2023-05-07T07:53:05;101477.75;;;9.56;80.28
30897;BME280;64229;52.246;21.054;2023-05-07T07:55:30;101482.63;;;9.47;79.97
30897;BME280;64229;52.246;21.054;2023-05-07T07:57:57;101473.06;;;9.28;80.19
30897;BME280;64229;52.246;21.054;2023-05-07T08:00:22;101486.97;;;9.30;80.75
30897;BME280;64229;52.246;21.054;2023-05-07T08:02:48;101470.59;;;9.15;81.20
30897;BME280;64229;52.246;21.054;2023-05-07T08:05:13;101487.44;;;9.27;81.50
30897;BME280;64229;52.246;21.054;2023-05-07T08:07:38;101483.56;;;9.65;79.37
30897;BME280;64229;52.246;21.054;2023-05-07T08:10:04;101489.41;;;9.73;77.40
30897;BME280;64229;52.246;21.054;2023-05-07T08:12:29;101495.59;;;9.55;77.77
30897;BME280;64229;52.246;21.054;2023-05-07T08:14:55;101492.81;;;9.39;78.90
30897;BME280;64229;52.246;21.054;2023-05-07T08:17:20;101493.22;;;9.36;79.54
30897;BME280;64229;52.246;21.054;2023-05-07T08:19:47;101498.06;;;10.22;77.64
30897;BME280;64229;52.246;21.054;2023-05-07T08:22:13;101491.59;;;11.10;73.28
30897;BME280;64229;52.246;21.054;2023-05-07T08:24:39;101503.53;;;11.36;70.07
30897;BME280;64229;52.246;21.054;2023-05-07T08:27:05;101501.78;;;11.13;70.38
30897;BME280;64229;52.246;21.054;2023-05-07T08:29:30;101506.44;;;11.18;70.21
30897;BME280;64229;52.246;21.054;2023-05-07T08:31:56;101513.19;;;11.82;68.61
30897;BME280;64229;52.246;21.054;2023-05-07T08:34:22;101498.91;;;12.49;63.72
30897;BME280;64229;52.246;21.054;2023-05-07T08:36:47;101507.72;;;12.66;63.29
30897;BME280;64229;52.246;21.054;2023-05-07T08:39:15;101493.31;;;12.72;62.41
30897;BME280;64229;52.246;21.054;2023-05-07T08:41:40;101502.66;;;12.48;63.28
30897;BME280;64229;52.246;21.054;2023-05-07T08:44:12;101506.94;;;12.10;64.99
30897;BME280;64229;52.246;21.054;2023-05-07T08:46:39;101514.88;;;11.72;66.39
30897;BME280;64229;52.246;21.054;2023-05-07T08:49:04;101509.13;;;11.35;67.88
30897;BME280;64229;52.246;21.054;2023-05-07T08:51:29;101512.66;;;12.36;66.36
30897;BME280;64229;52.246;21.054;2023-05-07T08:53:56;101497.00;;;13.15;61.96
30897;BME280;64229;52.246;21.054;2023-05-07T08:56:21;101491.78;;;13.84;58.88
30897;BME280;64229;52.246;21.054;2023-05-07T08:58:47;101512.63;;;14.09;58.24
30897;BME280;64229;52.246;21.054;2023-05-07T09:01:14;101508.94;;;13.51;57.79
30897;BME280;64229;52.246;21.054;2023-05-07T09:03:41;101505.72;;;12.79;58.50
30897;BME280;64229;52.246;21.054;2023-05-07T09:06:09;101517.97;;;12.53;60.15
30897;BME280;64229;52.246;21.054;2023-05-07T09:08:35;101520.09;;;12.51;60.62
30897;BME280;64229;52.246;21.054;2023-05-07T09:11:01;101524.88;;;13.14;59.95
30897;BME280;64229;52.246;21.054;2023-05-07T09:13:27;101525.69;;;13.37;59.16
30897;BME280;64229;52.246;21.054;2023-05-07T09:15:52;101531.38;;;12.96;59.37
30897;BME280;64229;52.246;21.054;2023-05-07T09:18:18;101528.88;;;12.29;60.15
30897;BME280;64229;52.246;21.054;2023-05-07T09:20:43;101527.06;;;11.96;62.07
30897;BME280;64229;52.246;21.054;2023-05-07T09:23:09;101527.06;;;11.68;62.41
30897;BME280;64229;52.246;21.054;2023-05-07T09:25:35;101533.31;;;11.56;62.03
30897;BME280;64229;52.246;21.054;2023-05-07T09:28:02;101529.06;;;12.61;60.08
30897;BME280;64229;52.246;21.054;2023-05-07T09:30:29;101545.16;;;13.54;55.01
30897;BME280;64229;52.246;21.054;2023-05-07T09:32:56;101536.81;;;13.50;54.40
30897;BME280;64229;52.246;21.054;2023-05-07T09:35:21;101543.75;;;13.19;55.70
30897;BME280;64229;52.246;21.054;2023-05-07T09:37:49;101550.00;;;12.64;57.06
30897;BME280;64229;52.246;21.054;2023-05-07T09:40:26;101539.94;;;12.16;57.67
30897;BME280;64229;52.246;21.054;2023-05-07T09:42:53;101542.13;;;11.85;56.58
30897;BME280;64229;52.246;21.054;2023-05-07T09:45:24;101526.81;;;12.14;55.24
30897;BME280;64229;52.246;21.054;2023-05-07T09:47:53;101549.16;;;12.42;55.05
30897;BME280;64229;52.246;21.054;2023-05-07T09:50:22;101557.47;;;13.06;53.00
30897;BME280;64229;52.246;21.054;2023-05-07T09:52:51;101556.75;;;13.32;51.95
30897;BME280;64229;52.246;21.054;2023-05-07T09:55:17;101555.53;;;13.72;49.62
30897;BME280;64229;52.246;21.054;2023-05-07T09:57:44;101555.38;;;14.21;49.03
30897;BME280;64229;52.246;21.054;2023-05-07T10:00:10;101554.63;;;14.26;48.75
30897;BME280;64229;52.246;21.054;2023-05-07T10:02:38;101563.34;;;13.74;50.27
30897;BME280;64229;52.246;21.054;2023-05-07T10:05:06;101561.69;;;13.19;51.57
30897;BME280;64229;52.246;21.054;2023-05-07T10:07:32;101567.78;;;12.92;52.93
30897;BME280;64229;52.246;21.054;2023-05-07T10:09:59;101538.72;;;12.62;53.33
30897;BME280;64229;52.246;21.054;2023-05-07T10:12:24;101571.75;;;12.68;53.84
30897;BME280;64229;52.246;21.054;2023-05-07T10:14:52;101572.22;;;12.65;53.82
30897;BME280;64229;52.246;21.054;2023-05-07T10:17:18;101556.75;;;12.67;54.06
30897;BME280;64229;52.246;21.054;2023-05-07T10:19:44;101574.84;;;12.98;54.56
30897;BME280;64229;52.246;21.054;2023-05-07T10:22:11;101563.09;;;13.26;52.95
30897;BME280;64229;52.246;21.054;2023-05-07T10:24:36;101570.31;;;13.21;52.25
30897;BME280;64229;52.246;21.054;2023-05-07T10:27:05;101589.03;;;12.99;51.44
30897;BME280;64229;52.246;21.054;2023-05-07T10:29:38;101581.56;;;13.01;51.52
30897;BME280;64229;52.246;21.054;2023-05-07T10:32:33;101586.41;;;12.82;51.46
30897;BME280;64229;52.246;21.054;2023-05-07T10:35:03;101567.75;;;12.70;51.34
30897;BME280;64229;52.246;21.054;2023-05-07T10:37:31;101571.47;;;12.48;51.84
30897;BME280;64229;52.246;21.054;2023-05-07T10:39:57;101587.63;;;12.19;52.88
30897;BME280;64229;52.246;21.054;2023-05-07T10:42:23;101585.66;;;11.69;54.73
30897;BME280;64229;52.246;21.054;2023-05-07T10:44:48;101585.69;;;11.41;55.76
30897;BME280;64229;52.246;21.054;2023-05-07T10:47:15;101589.22;;;11.29;56.68
30897;BME280;64229;52.246;21.054;2023-05-07T10:52:16;101586.06;;;10.92;59.09
30897;BME280;64229;52.246;21.054;2023-05-07T10:54:43;101590.34;;;10.93;59.23
30897;BME280;64229;52.246;21.054;2023-05-07T10:59:53;101589.31;;;11.06;58.51
30897;BME280;64229;52.246;21.054;2023-05-07T11:02:19;101572.31;;;11.12;57.17
30897;BME280;64229;52.246;21.054;2023-05-07T11:04:44;101586.56;;;11.29;57.44
30897;BME280;64229;52.246;21.054;2023-05-07T11:07:29;101598.09;;;11.47;57.21
30897;BME280;64229;52.246;21.054;2023-05-07T11:09:55;101598.88;;;11.59;56.82
30897;BME280;64229;52.246;21.054;2023-05-07T11:17:29;101604.66;;;12.47;54.13
30897;BME280;64229;52.246;21.054;2023-05-07T11:19:57;101607.66;;;12.50;53.24
30897;BME280;64229;52.246;21.054;2023-05-07T11:25:02;101606.25;;;11.97;55.01
30897;BME280;64229;52.246;21.054;2023-05-07T11:27:28;101608.28;;;11.90;55.79
30897;BME280;64229;52.246;21.054;2023-05-07T11:29:54;101608.38;;;11.95;55.31
30897;BME280;64229;52.246;21.054;2023-05-07T11:32:32;101600.41;;;12.00;55.21
30897;BME280;64229;52.246;21.054;2023-05-07T11:34:59;101601.09;;;12.24;54.92
30897;BME280;64229;52.246;21.054;2023-05-07T11:37:26;101615.34;;;12.30;53.21
30897;BME280;64229;52.246;21.054;2023-05-07T11:40:08;101615.22;;;12.36;53.86
30897;BME280;64229;52.246;21.054;2023-05-07T11:42:37;101613.50;;;12.47;53.61
30897;BME280;64229;52.246;21.054;2023-05-07T11:45:03;101606.84;;;12.50;54.11
30897;BME280;64229;52.246;21.054;2023-05-07T11:47:33;101622.66;;;12.68;52.88
30897;BME280;64229;52.246;21.054;2023-05-07T11:50:03;101606.56;;;12.68;52.83
30897;BME280;64229;52.246;21.054;2023-05-07T11:52:30;101604.06;;;12.61;52.47
30897;BME280;64229;52.246;21.054;2023-05-07T11:54:56;101590.72;;;12.28;52.82
30897;BME280;64229;52.246;21.054;2023-05-07T11:57:26;101614.56;;;12.46;52.93
30897;BME280;64229;52.246;21.054;2023-05-07T11:59:58;101619.72;;;12.53;53.27
30897;BME280;64229;52.246;21.054;2023-05-07T12:02:24;101591.50;;;12.45;53.92
30897;BME280;64229;52.246;21.054;2023-05-07T12:04:51;101612.78;;;12.73;53.03
30897;BME280;64229;52.246;21.054;2023-05-07T12:07:16;101607.13;;;12.70;52.65
30897;BME280;64229;52.246;21.054;2023-05-07T12:09:44;101616.81;;;12.54;53.15
30897;BME280;64229;52.246;21.054;2023-05-07T12:12:11;101621.53;;;12.47;53.70
30897;BME280;64229;52.246;21.054;2023-05-07T12:14:40;101631.28;;;12.36;53.48
30897;BME280;64229;52.246;21.054;2023-05-07T12:17:07;101605.72;;;12.29;53.16
30897;BME280;64229;52.246;21.054;2023-05-07T12:19:34;101622.34;;;12.48;53.23
30897;BME280;64229;52.246;21.054;2023-05-07T12:22:02;101640.28;;;12.47;52.40
30897;BME280;64229;52.246;21.054;2023-05-07T12:24:27;101632.31;;;12.52;51.82
30897;BME280;64229;52.246;21.054;2023-05-07T12:26:53;101632.34;;;12.35;52.57
30897;BME280;64229;52.246;21.054;2023-05-07T12:29:21;101639.78;;;12.16;52.69
30897;BME280;64229;52.246;21.054;2023-05-07T12:31:49;101629.84;;;12.00;53.51
30897;BME280;64229;52.246;21.054;2023-05-07T12:34:15;101632.38;;;12.07;53.63
30897;BME280;64229;52.246;21.054;2023-05-07T12:36:40;101639.59;;;12.06;53.86
30897;BME280;64229;52.246;21.054;2023-05-07T12:39:07;101621.44;;;12.08;54.16
30897;BME280;64229;52.246;21.054;2023-05-07T12:41:57;101625.56;;;12.33;53.71
30897;BME280;64229;52.246;21.054;2023-05-07T12:44:32;101632.25;;;12.47;53.54
30897;BME280;64229;52.246;21.054;2023-05-07T12:47:01;101635.78;;;12.69;52.40
30897;BME280;64229;52.246;21.054;2023-05-07T12:49:26;101627.53;;;12.93;51.48
30897;BME280;64229;52.246;21.054;2023-05-07T12:51:53;101632.59;;;12.72;51.41
30897;BME280;64229;52.246;21.054;2023-05-07T12:57:08;101633.59;;;13.05;51.01
30897;BME280;64229;52.246;21.054;2023-05-07T12:59:39;101639.72;;;13.00;51.05
30897;BME280;64229;52.246;21.054;2023-05-07T13:02:05;101609.06;;;12.74;50.65
30897;BME280;64229;52.246;21.054;2023-05-07T13:04:31;101645.75;;;12.74;50.49
30897;BME280;64229;52.246;21.054;2023-05-07T13:06:56;101625.66;;;12.38;51.23
30897;BME280;64229;52.246;21.054;2023-05-07T13:09:22;101638.97;;;12.33;51.45
30897;BME280;64229;52.246;21.054;2023-05-07T13:11:47;101636.78;;;12.13;51.47
30897;BME280;64229;52.246;21.054;2023-05-07T13:14:13;101640.00;;;11.98;52.53
30897;BME280;64229;52.246;21.054;2023-05-07T13:16:38;101636.25;;;11.99;52.90
30897;BME280;64229;52.246;21.054;2023-05-07T13:19:03;101640.22;;;11.97;52.91
30897;BME280;64229;52.246;21.054;2023-05-07T13:21:29;101621.47;;;11.80;53.61
30897;BME280;64229;52.246;21.054;2023-05-07T13:23:56;101642.19;;;12.01;53.45
30897;BME280;64229;52.246;21.054;2023-05-07T13:26:23;101639.78;;;12.16;53.42
30897;BME280;64229;52.246;21.054;2023-05-07T13:28:48;101635.72;;;12.31;52.82
30897;BME280;64229;52.246;21.054;2023-05-07T13:31:13;101622.16;;;12.54;52.21
30897;BME280;64229;52.246;21.054;2023-05-07T13:33:39;101636.09;;;12.73;50.61
30897;BME280;64229;52.246;21.054;2023-05-07T13:36:04;101632.56;;;12.67;50.45
30897;BME280;64229;52.246;21.054;2023-05-07T13:38:30;101612.44;;;12.48;50.44
30897;BME280;64229;52.246;21.054;2023-05-07T13:40:56;101634.72;;;12.54;51.11
30897;BME280;64229;52.246;21.054;2023-05-07T13:43:21;101624.63;;;12.39;50.63
30897;BME280;64229;52.246;21.054;2023-05-07T13:45:46;101626.22;;;12.40;50.96
30897;BME280;64229;52.246;21.054;2023-05-07T13:48:11;101632.09;;;12.37;50.45
30897;BME280;64229;52.246;21.054;2023-05-07T13:50:37;101618.28;;;12.28;50.92
30897;BME280;64229;52.246;21.054;2023-05-07T13:53:02;101621.13;;;12.38;50.87
30897;BME280;64229;52.246;21.054;2023-05-07T13:55:28;101626.47;;;12.55;50.52
30897;BME280;64229;52.246;21.054;2023-05-07T13:57:59;101624.38;;;12.40;50.54
30897;BME280;64229;52.246;21.054;2023-05-07T14:00:26;101626.78;;;12.42;51.46
30897;BME280;64229;52.246;21.054;2023-05-07T14:02:52;101624.38;;;12.57;51.05
30897;BME280;64229;52.246;21.054;2023-05-07T14:05:17;101628.97;;;12.79;50.21
30897;BME280;64229;52.246;21.054;2023-05-07T14:07:43;101634.66;;;13.04;49.30
30897;BME280;64229;52.246;21.054;2023-05-07T14:10:08;101626.06;;;13.02;49.06
30897;BME280;64229;52.246;21.054;2023-05-07T14:12:34;101629.53;;;12.81;49.33
30897;BME280;64229;52.246;21.054;2023-05-07T14:15:00;101633.03;;;12.64;50.10
30897;BME280;64229;52.246;21.054;2023-05-07T14:17:25;101631.84;;;12.38;50.95
30897;BME280;64229;52.246;21.054;2023-05-07T14:19:52;101632.22;;;12.30;50.75
30897;BME280;64229;52.246;21.054;2023-05-07T14:22:22;101639.69;;;12.11;52.02
30897;BME280;64229;52.246;21.054;2023-05-07T14:24:49;101638.31;;;12.09;52.77
30897;BME280;64229;52.246;21.054;2023-05-07T14:27:14;101631.25;;;12.03;51.74
30897;BME280;64229;52.246;21.054;2023-05-07T14:29:40;101638.31;;;12.09;51.86
30897;BME280;64229;52.246;21.054;2023-05-07T14:32:05;101632.69;;;11.94;52.23
30897;BME280;64229;52.246;21.054;2023-05-07T14:34:31;101642.66;;;11.98;52.93
30897;BME280;64229;52.246;21.054;2023-05-07T14:36:56;101644.69;;;11.91;52.90
30897;BME280;64229;52.246;21.054;2023-05-07T14:39:21;101640.22;;;11.97;52.86
30897;BME280;64229;52.246;21.054;2023-05-07T14:41:47;101622.91;;;13.27;49.71
30897;BME280;64229;52.246;21.054;2023-05-07T14:44:12;101644.72;;;14.11;47.98
30897;BME280;64229;52.246;21.054;2023-05-07T14:46:38;101642.66;;;14.24;47.84
30897;BME280;64229;52.246;21.054;2023-05-07T14:49:03;101652.81;;;14.16;46.46
30897;BME280;64229;52.246;21.054;2023-05-07T14:51:29;101644.94;;;13.78;46.67
30897;BME280;64229;52.246;21.054;2023-05-07T14:53:55;101638.09;;;13.65;47.58
30897;BME280;64229;52.246;21.054;2023-05-07T14:56:21;101650.44;;;13.66;47.32
30897;BME280;64229;52.246;21.054;2023-05-07T14:58:47;101641.72;;;13.54;47.08
30897;BME280;64229;52.246;21.054;2023-05-07T15:01:13;101638.56;;;13.18;47.98
30897;BME280;64229;52.246;21.054;2023-05-07T15:03:39;101644.63;;;12.87;48.49
30897;BME280;64229;52.246;21.054;2023-05-07T15:06:05;101619.72;;;12.69;49.04
30897;BME280;64229;52.246;21.054;2023-05-07T15:08:30;101635.84;;;12.74;48.93
30897;BME280;64229;52.246;21.054;2023-05-07T15:10:55;101633.06;;;12.86;47.99
30897;BME280;64229;52.246;21.054;2023-05-07T15:13:21;101627.63;;;12.98;47.87
30897;BME280;64229;52.246;21.054;2023-05-07T15:15:47;101636.41;;;13.15;47.38
30897;BME280;64229;52.246;21.054;2023-05-07T15:18:12;101639.56;;;13.51;46.57
30897;BME280;64229;52.246;21.054;2023-05-07T15:20:38;101631.94;;;13.65;46.63
30897;BME280;64229;52.246;21.054;2023-05-07T15:23:05;101632.53;;;13.72;44.91
30897;BME280;64229;52.246;21.054;2023-05-07T15:25:31;101643.50;;;13.43;45.60
30897;BME280;64229;52.246;21.054;2023-05-07T15:27:58;101641.31;;;13.01;46.53
30897;BME280;64229;52.246;21.054;2023-05-07T15:30:23;101630.28;;;12.76;47.33
30897;BME280;64229;52.246;21.054;2023-05-07T15:32:49;101633.16;;;12.74;47.33
30897;BME280;64229;52.246;21.054;2023-05-07T15:35:15;101644.06;;;12.68;47.35
30897;BME280;64229;52.246;21.054;2023-05-07T15:37:41;101643.16;;;12.79;46.98
30897;BME280;64229;52.246;21.054;2023-05-07T15:40:07;101639.59;;;12.73;47.18
30897;BME280;64229;52.246;21.054;2023-05-07T15:42:33;101652.03;;;12.63;47.17
30897;BME280;64229;52.246;21.054;2023-05-07T15:44:58;101618.94;;;12.19;47.62
30897;BME280;64229;52.246;21.054;2023-05-07T15:47:25;101635.38;;;12.10;48.81
30897;BME280;64229;52.246;21.054;2023-05-07T15:49:51;101649.19;;;12.19;49.14
30897;BME280;64229;52.246;21.054;2023-05-07T15:52:17;101630.19;;;12.21;47.94
30897;BME280;64229;52.246;21.054;2023-05-07T15:54:42;101647.69;;;12.11;48.28
30897;BME280;64229;52.246;21.054;2023-05-07T15:57:07;101642.34;;;11.95;48.51
30897;BME280;64229;52.246;21.054;2023-05-07T15:59:34;101648.06;;;11.86;49.16
30897;BME280;64229;52.246;21.054;2023-05-07T16:02:00;101648.31;;;11.85;49.85
30897;BME280;64229;52.246;21.054;2023-05-07T16:04:25;101656.59;;;11.83;50.02
30897;BME280;64229;52.246;21.054;2023-05-07T16:06:52;101649.13;;;11.85;50.03
30897;BME280;64229;52.246;21.054;2023-05-07T16:09:17;101642.41;;;11.83;49.90
30897;BME280;64229;52.246;21.054;2023-05-07T16:11:43;101645.31;;;11.81;50.20
30897;BME280;64229;52.246;21.054;2023-05-07T16:14:08;101644.22;;;11.94;50.44
30897;BME280;64229;52.246;21.054;2023-05-07T16:16:35;101652.31;;;11.99;49.68
30897;BME280;64229;52.246;21.054;2023-05-07T16:19:02;101643.47;;;11.99;49.52
30897;BME280;64229;52.246;21.054;2023-05-07T16:21:27;101646.81;;;11.77;50.28
30897;BME280;64229;52.246;21.054;2023-05-07T16:23:53;101636.22;;;11.54;51.02
30897;BME280;64229;52.246;21.054;2023-05-07T16:26:18;101646.81;;;11.49;51.41
30897;BME280;64229;52.246;21.054;2023-05-07T16:28:44;101645.16;;;11.59;51.26
30897;BME280;64229;52.246;21.054;2023-05-07T16:31:09;101643.56;;;11.75;50.95
30897;BME280;64229;52.246;21.054;2023-05-07T16:33:35;101642.38;;;11.54;51.43
30897;BME280;64229;52.246;21.054;2023-05-07T16:36:00;101643.09;;;11.50;51.87
30897;BME280;64229;52.246;21.054;2023-05-07T16:38:26;101647.53;;;11.33;52.20
30897;BME280;64229;52.246;21.054;2023-05-07T16:40:53;101644.78;;;11.16;52.90
30897;BME280;64229;52.246;21.054;2023-05-07T16:43:18;101651.50;;;11.30;52.78
30897;BME280;64229;52.246;21.054;2023-05-07T16:45:44;101633.44;;;11.09;52.90
30897;BME280;64229;52.246;21.054;2023-05-07T16:48:10;101655.91;;;11.36;51.74
30897;BME280;64229;52.246;21.054;2023-05-07T16:50:35;101657.31;;;11.39;51.80
30897;BME280;64229;52.246;21.054;2023-05-07T16:53:01;101650.53;;;11.36;51.72
30897;BME280;64229;52.246;21.054;2023-05-07T16:55:27;101645.00;;;11.26;51.82
30897;BME280;64229;52.246;21.054;2023-05-07T16:57:52;101658.06;;;11.11;52.50
30897;BME280;64229;52.246;21.054;2023-05-07T17:00:17;101651.09;;;11.10;52.46
30897;BME280;64229;52.246;21.054;2023-05-07T17:02:43;101655.75;;;10.91;53.07
30897;BME280;64229;52.246;21.054;2023-05-07T17:05:09;101650.31;;;10.74;53.92
30897;BME280;64229;52.246;21.054;2023-05-07T17:07:35;101661.19;;;10.72;54.31
30897;BME280;64229;52.246;21.054;2023-05-07T17:10:01;101661.19;;;10.72;53.99
30897;BME280;64229;52.246;21.054;2023-05-07T17:12:26;101663.28;;;10.70;54.17
30897;BME280;64229;52.246;21.054;2023-05-07T17:14:51;101663.66;;;10.97;53.10
30897;BME280;64229;52.246;21.054;2023-05-07T17:17:17;101664.22;;;10.99;53.06